createdAt,value
2022-10-13T00:00:38.113Z,61.37
2022-10-13T00:03:24.449Z,56.87
2022-10-13T00:05:50.691Z,49.23
2022-10-13T00:08:20.170Z,41.47
2022-10-13T00:10:49.227Z,49.00
2022-10-13T00:13:19.990Z,44.87
2022-10-13T00:15:47.168Z,55.10
2022-10-13T00:18:14.629Z,47.20
2022-10-13T00:20:47.154Z,41.80
2022-10-13T00:23:14.690Z,42.57
2022-10-13T00:25:48.760Z,46.37
2022-10-13T00:28:18.285Z,40.57
2022-10-13T00:30:45.785Z,43.93
2022-10-13T00:33:12.776Z,59.63
2022-10-13T00:35:41.711Z,59.63
2022-10-13T00:38:07.994Z,46.27
2022-10-13T00:40:41.705Z,46.73
2022-10-13T00:43:17.789Z,45.13
2022-10-13T00:45:44.956Z,56.60
2022-10-13T00:48:12.474Z,57.50
2022-10-13T00:50:41.771Z,47.67
2022-10-13T00:53:09.947Z,46.97
2022-10-13T00:55:39.199Z,51.73
2022-10-13T00:58:09.929Z,43.47
2022-10-13T01:00:36.187Z,42.67
2022-10-13T01:03:02.921Z,43.27
2022-10-13T01:05:30.586Z,41.63
2022-10-13T01:07:58.746Z,42.70
2022-10-13T01:10:58.441Z,46.33
2022-10-13T01:13:37.266Z,46.80
2022-10-13T01:16:11.415Z,38.43
2022-10-13T01:18:49.230Z,46.40
2022-10-13T01:21:47.773Z,75.80
2022-10-13T01:24:57.888Z,74.03
2022-10-13T01:27:48.677Z,79.23
2022-10-13T01:30:18.217Z,68.33
2022-10-13T01:32:47.468Z,54.00
2022-10-13T01:35:28.460Z,82.00
2022-10-13T01:38:16.892Z,119.07
2022-10-13T01:40:58.830Z,75.13
2022-10-13T01:43:36.067Z,39.07
2022-10-13T01:46:14.899Z,45.10
2022-10-13T01:48:43.957Z,64.13
2022-10-13T01:51:14.262Z,67.03
2022-10-13T01:53:42.080Z,61.47
2022-10-13T01:56:08.697Z,56.03
2022-10-13T01:58:37.423Z,52.17
2022-10-13T02:01:08.642Z,55.53
2022-10-13T02:04:02.940Z,50.67
2022-10-13T02:06:40.845Z,39.87
2022-10-13T02:09:18.284Z,39.10
2022-10-13T02:11:57.775Z,57.60
2022-10-13T02:14:31.601Z,103.67
2022-10-13T02:17:02.514Z,52.40
2022-10-13T02:19:32.722Z,37.47
2022-10-13T02:21:59.042Z,33.53
2022-10-13T02:24:25.761Z,35.47
2022-10-13T02:26:52.827Z,43.17
2022-10-13T02:29:20.166Z,48.63
2022-10-13T02:31:46.952Z,47.97
2022-10-13T02:34:14.102Z,52.17
2022-10-13T02:36:41.659Z,36.73
2022-10-13T02:39:10.167Z,36.00
2022-10-13T02:41:36.858Z,35.53
2022-10-13T02:44:03.616Z,77.57
2022-10-13T02:46:34.286Z,104.67
2022-10-13T02:49:01.117Z,60.63
2022-10-13T02:51:28.334Z,58.97
2022-10-13T02:53:54.853Z,101.17
2022-10-13T02:56:21.502Z,58.77
2022-10-13T02:58:47.631Z,63.67
2022-10-13T03:01:15.187Z,48.50
2022-10-13T03:03:41.988Z,48.97
2022-10-13T03:06:08.263Z,46.27
2022-10-13T03:08:35.293Z,51.77
2022-10-13T03:11:01.957Z,63.57
2022-10-13T03:13:28.227Z,67.87
2022-10-13T03:16:03.257Z,75.80
2022-10-13T03:18:29.775Z,57.47
2022-10-13T03:21:02.034Z,56.67
2022-10-13T03:23:28.564Z,60.20
2022-10-13T03:25:55.282Z,62.60
2022-10-13T03:28:22.408Z,47.50
2022-10-13T03:31:01.880Z,55.33
2022-10-13T03:33:28.633Z,79.77
2022-10-13T03:36:01.298Z,57.67
2022-10-13T03:38:29.270Z,54.27
2022-10-13T03:40:55.746Z,45.10
2022-10-13T03:43:23.051Z,73.27
2022-10-13T03:46:01.183Z,49.63
2022-10-13T03:48:28.758Z,51.80
2022-10-13T03:50:55.204Z,48.27
2022-10-13T03:53:21.907Z,49.40
2022-10-13T03:55:53.854Z,46.70
2022-10-13T03:58:22.938Z,48.03
2022-10-13T04:00:53.357Z,49.77
2022-10-13T04:03:20.223Z,44.97
2022-10-13T04:05:46.962Z,50.90
2022-10-13T04:08:13.643Z,49.50
2022-10-13T04:10:40.257Z,47.33
2022-10-13T04:13:07.093Z,43.43
2022-10-13T04:15:38.268Z,42.67
2022-10-13T04:18:06.161Z,47.00
2022-10-13T04:20:39.823Z,52.60
2022-10-13T04:23:06.913Z,45.87
2022-10-13T04:25:36.636Z,52.03
2022-10-13T04:28:04.814Z,37.87
2022-10-13T04:30:33.164Z,43.67
2022-10-13T04:32:59.373Z,35.77
2022-10-13T04:35:26.140Z,36.37
2022-10-13T04:37:52.749Z,38.70
2022-10-13T04:40:19.203Z,35.37
2022-10-13T04:42:45.761Z,38.47
2022-10-13T04:45:12.103Z,35.30
2022-10-13T04:47:40.753Z,36.57
2022-10-13T04:50:07.621Z,60.87
2022-10-13T04:52:34.985Z,45.73
2022-10-13T04:55:02.217Z,52.37
2022-10-13T04:57:28.977Z,47.73
2022-10-13T04:59:55.304Z,40.10
2022-10-13T05:02:22.037Z,54.03
2022-10-13T05:04:48.433Z,61.87
2022-10-13T05:07:18.660Z,125.67
2022-10-13T05:09:45.389Z,123.13
2022-10-13T05:12:12.587Z,121.20
2022-10-13T05:14:38.970Z,75.60
2022-10-13T05:17:07.246Z,85.50
2022-10-13T05:19:33.470Z,61.53
2022-10-13T05:21:59.994Z,58.73
2022-10-13T05:24:35.886Z,54.30
2022-10-13T05:27:11.719Z,45.80
2022-10-13T05:29:39.117Z,45.67
2022-10-13T05:32:06.352Z,43.10
2022-10-13T05:34:32.764Z,53.00
2022-10-13T05:37:00.113Z,47.97
2022-10-13T05:39:27.360Z,49.17
2022-10-13T05:41:53.659Z,53.03
2022-10-13T05:44:20.300Z,36.10
2022-10-13T05:46:53.548Z,41.63
2022-10-13T05:49:20.024Z,39.80
2022-10-13T05:51:54.314Z,41.87
2022-10-13T05:54:30.197Z,47.13
2022-10-13T05:57:02.259Z,43.63
2022-10-13T05:59:33.198Z,45.77
2022-10-13T06:02:01.361Z,38.77
2022-10-13T06:04:41.703Z,39.07
2022-10-13T06:07:09.153Z,38.70
2022-10-13T06:09:39.111Z,41.57
2022-10-13T06:12:07.276Z,50.83
2022-10-13T06:14:34.134Z,52.70
2022-10-13T06:17:05.623Z,41.93
2022-10-13T06:19:31.768Z,41.50
2022-10-13T06:22:05.274Z,41.77
2022-10-13T06:24:32.025Z,41.03
2022-10-13T06:26:58.324Z,49.20
2022-10-13T06:29:24.782Z,37.13
2022-10-13T06:31:51.137Z,32.53
2022-10-13T06:34:17.943Z,31.50
2022-10-13T06:36:44.522Z,30.57
2022-10-13T06:39:11.350Z,24.17
2022-10-13T06:41:38.649Z,26.37
2022-10-13T06:44:05.446Z,25.30
2022-10-13T06:46:32.013Z,27.30
2022-10-13T06:48:58.606Z,27.40
2022-10-13T06:51:26.741Z,27.90
2022-10-13T06:53:55.341Z,24.37
2022-10-13T06:56:25.308Z,23.63
2022-10-13T06:58:51.981Z,24.23
2022-10-13T07:01:18.780Z,32.23
2022-10-13T07:03:48.372Z,28.80
2022-10-13T07:06:17.660Z,33.90
2022-10-13T07:08:44.019Z,40.13
2022-10-13T07:11:15.861Z,33.63
2022-10-13T07:13:47.019Z,31.90
2022-10-13T07:16:16.199Z,32.13
2022-10-13T07:18:43.050Z,35.10
2022-10-13T07:21:09.461Z,25.90
2022-10-13T07:23:35.814Z,26.80
2022-10-13T07:26:07.270Z,24.87
2022-10-13T07:28:33.729Z,28.73
2022-10-13T07:31:00.155Z,25.40
2022-10-13T07:33:26.428Z,26.57
2022-10-13T07:35:53.778Z,32.33
2022-10-13T07:38:20.433Z,24.00
2022-10-13T07:40:47.833Z,33.93
2022-10-13T07:43:14.469Z,22.73
2022-10-13T07:45:41.401Z,26.70
2022-10-13T07:48:07.984Z,23.50
2022-10-13T07:50:35.897Z,22.67
2022-10-13T07:53:02.245Z,25.23
2022-10-13T07:55:29.616Z,25.80
2022-10-13T07:57:55.790Z,24.20
2022-10-13T08:00:22.254Z,27.07
2022-10-13T08:02:50.403Z,20.87
2022-10-13T08:05:17.092Z,20.17
2022-10-13T08:07:43.732Z,29.03
2022-10-13T08:10:10.789Z,25.17
2022-10-13T08:12:37.689Z,29.97
2022-10-13T08:15:07.449Z,33.60
2022-10-13T08:17:34.211Z,20.43
2022-10-13T08:20:01.035Z,32.53
2022-10-13T08:22:35.089Z,24.17
2022-10-13T08:25:02.535Z,30.00
2022-10-13T08:27:49.796Z,27.40
2022-10-13T08:30:17.679Z,24.63
2022-10-13T08:32:44.051Z,22.70
2022-10-13T08:35:10.537Z,19.67
2022-10-13T08:37:36.958Z,18.53
2022-10-13T08:40:03.450Z,17.60
2022-10-13T08:42:30.056Z,18.57
2022-10-13T08:45:35.885Z,15.97
2022-10-13T08:48:11.752Z,21.40
2022-10-13T08:50:42.173Z,17.93
2022-10-13T08:53:18.828Z,16.80
2022-10-13T08:55:55.299Z,18.20
2022-10-13T08:58:31.520Z,16.97
2022-10-13T09:01:09.988Z,15.43
2022-10-13T09:03:56.810Z,15.83
2022-10-13T09:06:36.117Z,19.03
2022-10-13T09:09:10.229Z,20.73
2022-10-13T09:11:40.208Z,19.70
2022-10-13T09:14:23.216Z,16.27
2022-10-13T09:16:51.318Z,19.03
2022-10-13T09:19:26.593Z,17.30
2022-10-13T09:22:14.459Z,26.93
2022-10-13T09:24:40.993Z,17.10
2022-10-13T09:27:15.956Z,17.10
2022-10-13T09:29:43.965Z,19.33
2022-10-13T09:32:17.746Z,22.87
2022-10-13T09:34:44.688Z,16.13
2022-10-13T09:37:20.652Z,13.63
2022-10-13T09:40:01.103Z,16.60
2022-10-13T09:42:31.277Z,18.17
2022-10-13T09:45:14.580Z,14.83
2022-10-13T09:47:48.261Z,22.30
2022-10-13T09:50:31.174Z,17.43
2022-10-13T09:53:30.732Z,15.70
2022-10-13T09:56:15.754Z,17.80
2022-10-13T09:58:53.527Z,17.57
2022-10-13T10:01:25.997Z,23.17
2022-10-13T10:03:54.220Z,17.03
2022-10-13T10:06:24.018Z,17.07
2022-10-13T10:09:09.273Z,14.77
2022-10-13T10:11:44.694Z,17.93
2022-10-13T10:14:22.088Z,17.60
2022-10-13T10:17:25.515Z,23.97
2022-10-13T10:20:07.277Z,16.53
2022-10-13T10:22:45.033Z,16.77
2022-10-13T10:25:34.996Z,16.50
2022-10-13T10:28:07.688Z,14.20
2022-10-13T10:30:42.562Z,16.83
2022-10-13T10:33:17.459Z,16.87
2022-10-13T10:35:54.969Z,14.33
2022-10-13T10:38:27.472Z,22.73
2022-10-13T10:40:56.397Z,17.03
2022-10-13T10:43:25.777Z,17.70
2022-10-13T10:45:57.847Z,17.83
2022-10-13T10:48:30.393Z,20.50
2022-10-13T10:50:56.906Z,15.90
2022-10-13T10:53:45.162Z,14.07
2022-10-13T10:56:31.838Z,17.23
2022-10-13T10:59:28.680Z,15.77
2022-10-13T11:02:32.920Z,14.87
2022-10-13T11:05:05.215Z,18.20
2022-10-13T11:07:32.602Z,17.17
2022-10-13T11:09:58.749Z,19.87
2022-10-13T11:12:44.224Z,17.10
2022-10-13T11:15:13.392Z,12.83
2022-10-13T11:17:40.713Z,14.57
2022-10-13T11:20:19.421Z,17.87
2022-10-13T11:22:58.305Z,16.27
2022-10-13T11:25:44.378Z,14.73
2022-10-13T11:28:20.363Z,13.07
2022-10-13T11:30:50.856Z,16.40
2022-10-13T11:33:38.606Z,16.93
2022-10-13T11:36:31.849Z,16.73
2022-10-13T11:39:22.005Z,13.33
2022-10-13T11:42:11.345Z,12.93
2022-10-13T11:44:58.460Z,14.00
2022-10-13T11:48:02.350Z,16.43
2022-10-13T11:50:29.462Z,14.13
2022-10-13T11:53:18.618Z,17.90
2022-10-13T11:55:49.379Z,12.47
2022-10-13T11:58:20.304Z,16.07
2022-10-13T12:00:58.682Z,15.73
2022-10-13T12:03:31.388Z,14.20
2022-10-13T12:06:32.597Z,16.37
2022-10-13T12:09:16.103Z,11.63
2022-10-13T12:11:43.571Z,17.23
2022-10-13T12:14:23.542Z,11.43
2022-10-13T12:19:29.440Z,111.47
2022-10-13T12:21:59.668Z,45.57
2022-10-13T12:24:29.180Z,50.50
2022-10-13T12:26:56.833Z,19.17
2022-10-13T12:29:28.899Z,18.43
2022-10-13T12:31:57.902Z,17.13
2022-10-13T12:34:34.681Z,21.43
2022-10-13T12:37:13.285Z,19.17
2022-10-13T12:39:40.309Z,15.57
2022-10-13T12:42:12.290Z,13.53
2022-10-13T12:44:39.484Z,14.47
2022-10-13T12:47:44.073Z,14.77
2022-10-13T12:50:28.825Z,65.63
2022-10-13T12:53:02.657Z,114.67
2022-10-13T12:55:30.478Z,76.70
2022-10-13T12:57:57.743Z,21.33
2022-10-13T13:00:27.078Z,18.73
2022-10-13T13:03:03.148Z,27.37
2022-10-13T13:05:35.819Z,22.50
2022-10-13T13:08:20.608Z,16.47
2022-10-13T13:10:57.730Z,20.83
2022-10-13T13:13:24.718Z,22.17
2022-10-13T13:15:51.215Z,22.40
2022-10-13T13:18:35.182Z,17.97
2022-10-13T13:21:04.163Z,20.00
2022-10-13T13:23:33.938Z,20.27
2022-10-13T13:26:22.718Z,18.93
2022-10-13T13:28:54.934Z,13.80
2022-10-13T13:31:23.670Z,17.17
2022-10-13T13:33:52.411Z,23.33
2022-10-13T13:36:21.824Z,16.03
2022-10-13T13:38:51.964Z,15.50
2022-10-13T13:41:19.733Z,23.43
2022-10-13T13:43:46.314Z,16.80
2022-10-13T13:46:19.238Z,28.43
2022-10-13T13:48:45.966Z,20.60
2022-10-13T13:51:12.651Z,13.37
2022-10-13T13:53:39.614Z,13.80
2022-10-13T13:56:11.222Z,11.70
2022-10-13T13:58:37.694Z,19.57
2022-10-13T14:01:04.350Z,16.47
2022-10-13T14:03:31.181Z,14.37
2022-10-13T14:05:57.453Z,14.03
2022-10-13T14:08:25.675Z,15.57
2022-10-13T14:10:52.289Z,21.30
2022-10-13T14:13:18.749Z,17.60
2022-10-13T14:15:45.862Z,10.33
2022-10-13T14:18:13.163Z,11.23
2022-10-13T14:20:41.559Z,8.37
2022-10-13T14:23:08.681Z,19.50
2022-10-13T14:25:37.890Z,12.40
2022-10-13T14:28:04.574Z,11.97
2022-10-13T14:30:31.203Z,18.73
2022-10-13T14:32:59.747Z,18.03
2022-10-13T14:35:28.553Z,20.93
2022-10-13T14:37:55.090Z,17.00
2022-10-13T14:40:21.537Z,12.33
2022-10-13T14:42:50.021Z,16.23
2022-10-13T14:45:17.207Z,13.53
2022-10-13T14:47:43.426Z,13.27
2022-10-13T14:50:11.256Z,72.60
2022-10-13T14:52:37.662Z,23.23
2022-10-13T14:55:04.628Z,37.63
2022-10-13T14:57:32.544Z,25.30
2022-10-13T15:00:01.926Z,22.40
2022-10-13T15:02:29.245Z,58.83
2022-10-13T15:04:55.431Z,51.13
2022-10-13T15:07:22.264Z,92.03
2022-10-13T15:09:53.086Z,43.53
2022-10-13T15:12:27.634Z,39.53
2022-10-13T15:14:54.028Z,19.03
2022-10-13T15:17:20.534Z,14.87
2022-10-13T15:19:47.568Z,15.20
2022-10-13T15:22:14.152Z,57.67
2022-10-13T15:24:40.420Z,80.87
2022-10-13T15:27:06.932Z,36.63
2022-10-13T15:29:33.528Z,35.00
2022-10-13T15:32:17.328Z,53.93
2022-10-13T15:34:49.252Z,34.07
2022-10-13T15:37:15.811Z,58.13
2022-10-13T15:39:42.205Z,105.00
2022-10-13T15:42:10.929Z,155.60
2022-10-13T15:45:08.053Z,134.47
2022-10-13T15:47:25.258Z,133.73
2022-10-13T15:49:51.565Z,101.30
2022-10-13T15:52:18.437Z,56.43
2022-10-13T15:54:45.153Z,51.87
2022-10-13T15:57:11.625Z,93.90
2022-10-13T15:59:37.919Z,99.43
2022-10-13T16:02:04.260Z,132.10
2022-10-13T16:04:36.367Z,145.37
2022-10-13T16:07:03.960Z,146.83
2022-10-13T16:09:30.895Z,125.90
2022-10-13T16:12:01.882Z,131.20
2022-10-13T16:14:31.247Z,102.40
2022-10-13T16:17:00.561Z,140.07
2022-10-13T16:19:27.406Z,141.03
2022-10-13T16:21:54.450Z,96.40
2022-10-13T16:24:20.903Z,114.43
2022-10-13T16:26:47.123Z,120.13
2022-10-13T16:29:13.673Z,136.30
2022-10-13T16:31:39.869Z,96.40
2022-10-13T16:34:06.309Z,80.83
2022-10-13T16:36:32.582Z,78.13
2022-10-13T16:38:59.229Z,113.10
2022-10-13T16:41:25.554Z,116.53
2022-10-13T16:43:52.360Z,113.43
2022-10-13T16:46:19.914Z,112.57
2022-10-13T16:48:47.351Z,100.00
2022-10-13T16:51:19.484Z,85.20
2022-10-13T16:53:48.705Z,118.10
2022-10-13T16:56:15.582Z,157.33
2022-10-13T16:58:44.651Z,160.03
2022-10-13T17:01:13.780Z,141.20
2022-10-13T17:03:43.523Z,126.10
2022-10-13T17:06:14.350Z,125.70
2022-10-13T17:08:41.658Z,126.87
2022-10-13T17:11:14.521Z,120.63
2022-10-13T17:13:40.748Z,134.37
2022-10-13T17:16:07.453Z,122.20
2022-10-13T17:18:33.789Z,135.77
2022-10-13T17:21:03.539Z,120.30
2022-10-13T17:23:31.192Z,84.60
2022-10-13T17:26:03.602Z,77.13
2022-10-13T17:28:30.470Z,73.03
2022-10-13T17:31:03.515Z,65.00
2022-10-13T17:33:33.708Z,51.57
2022-10-13T17:36:12.823Z,48.97
2022-10-13T17:38:39.595Z,47.77
2022-10-13T17:41:07.643Z,46.17
2022-10-13T17:43:36.734Z,44.37
2022-10-13T17:50:10.484Z,53.00
2022-10-13T17:52:37.224Z,53.67
2022-10-13T17:55:03.901Z,70.43
2022-10-13T17:57:30.780Z,75.33
2022-10-13T18:00:06.890Z,65.07
2022-10-13T18:02:40.709Z,65.50
2022-10-13T18:05:07.406Z,67.80
2022-10-13T18:07:34.259Z,63.27
2022-10-13T18:10:00.524Z,58.30
2022-10-13T18:12:26.834Z,53.93
2022-10-13T18:14:55.951Z,52.80
2022-10-13T18:17:22.688Z,49.57
2022-10-13T18:19:50.631Z,45.70
2022-10-13T18:22:18.196Z,50.47
2022-10-13T18:24:45.824Z,46.60
2022-10-13T18:27:12.297Z,69.00
2022-10-13T18:29:39.255Z,64.83
2022-10-13T18:32:05.593Z,62.57
2022-10-13T18:34:32.003Z,69.73
2022-10-13T18:36:59.254Z,59.30
2022-10-13T18:39:28.029Z,65.13
2022-10-13T18:41:56.427Z,50.40
2022-10-13T18:44:28.163Z,51.40
2022-10-13T18:46:55.868Z,154.07
2022-10-13T18:49:30.046Z,169.03
2022-10-13T18:51:58.088Z,132.27
2022-10-13T18:54:29.138Z,80.10
2022-10-13T18:56:59.304Z,72.90
2022-10-13T18:59:29.302Z,78.50
2022-10-13T19:01:58.383Z,88.37
2022-10-13T19:04:25.887Z,72.97
2022-10-13T19:06:53.779Z,60.33
2022-10-13T19:09:20.958Z,61.80
2022-10-13T19:11:47.520Z,57.57
2022-10-13T19:14:16.284Z,54.17
2022-10-13T19:16:43.427Z,67.17
2022-10-13T19:19:10.758Z,67.80
2022-10-13T19:21:42.131Z,64.63
2022-10-13T19:24:10.739Z,74.50
2022-10-13T19:26:38.118Z,74.10
2022-10-13T19:29:11.807Z,89.63
2022-10-13T19:31:40.034Z,75.70
2022-10-13T19:34:08.129Z,85.33
2022-10-13T19:36:43.980Z,70.03
2022-10-13T19:39:17.742Z,69.00
2022-10-13T19:41:45.428Z,64.77
2022-10-13T19:44:13.294Z,59.77
2022-10-13T19:46:41.990Z,60.83
2022-10-13T19:49:09.713Z,66.30
2022-10-13T19:51:41.054Z,62.37
2022-10-13T19:54:08.359Z,65.73
2022-10-13T19:56:36.134Z,71.43
2022-10-13T19:59:06.105Z,57.07
2022-10-13T20:01:39.579Z,56.67
2022-10-13T20:04:13.664Z,52.30
2022-10-13T20:06:45.918Z,54.53
2022-10-13T20:09:12.904Z,60.47
2022-10-13T20:11:46.770Z,60.33
2022-10-13T20:14:13.606Z,52.87
2022-10-13T20:16:40.466Z,56.33
2022-10-13T20:19:06.927Z,55.80
2022-10-13T20:21:33.776Z,44.40
2022-10-13T20:24:00.440Z,43.13
2022-10-13T20:26:26.835Z,40.03
2022-10-13T20:28:53.863Z,37.03
2022-10-13T20:31:21.984Z,32.87
2022-10-13T20:33:53.871Z,36.57
2022-10-13T20:36:20.407Z,35.63
2022-10-13T20:38:47.785Z,31.60
2022-10-13T20:41:25.991Z,30.97
2022-10-13T20:43:54.589Z,38.33
2022-10-13T20:46:22.916Z,59.73
2022-10-13T20:51:40.993Z,44.70
2022-10-13T20:54:10.531Z,32.87
2022-10-13T20:56:36.952Z,36.63
2022-10-13T20:59:06.524Z,38.37
2022-10-13T21:01:33.863Z,53.43
2022-10-13T21:04:00.208Z,52.40
2022-10-13T21:06:26.814Z,50.07
2022-10-13T21:08:53.390Z,52.93
2022-10-13T21:11:21.292Z,51.30
2022-10-13T21:13:48.736Z,48.10
2022-10-13T21:16:26.384Z,51.00
2022-10-13T21:18:55.136Z,46.93
2022-10-13T21:21:32.035Z,40.23
2022-10-13T21:24:02.338Z,42.47
2022-10-13T21:26:32.885Z,40.17
2022-10-13T21:29:02.297Z,40.20
2022-10-13T21:31:29.786Z,39.97
2022-10-13T21:33:57.422Z,35.37
2022-10-13T21:36:26.850Z,36.77
2022-10-13T21:38:56.747Z,41.43
2022-10-13T21:41:24.739Z,45.97
2022-10-13T21:43:52.147Z,43.77
2022-10-13T21:46:22.637Z,40.33
2022-10-13T21:48:54.566Z,40.90
2022-10-13T21:51:28.523Z,37.87
2022-10-13T21:54:01.210Z,35.80
2022-10-13T21:56:31.057Z,38.63
2022-10-13T21:58:59.702Z,41.77
2022-10-13T22:01:26.582Z,37.83
2022-10-13T22:03:55.754Z,39.87
2022-10-13T22:06:26.280Z,49.67
2022-10-13T22:08:54.384Z,52.13
2022-10-13T22:11:23.250Z,50.60
2022-10-13T22:13:50.118Z,52.00
2022-10-13T22:16:22.580Z,62.40
2022-10-13T22:18:53.260Z,61.63
2022-10-13T22:21:23.613Z,63.50
2022-10-13T22:23:49.858Z,51.10
2022-10-13T22:26:17.931Z,55.23
2022-10-13T22:28:47.353Z,53.63
2022-10-13T22:31:13.721Z,56.20
2022-10-13T22:33:43.080Z,51.40
2022-10-13T22:36:11.521Z,60.87
2022-10-13T22:38:37.678Z,61.47
2022-10-13T22:41:07.505Z,54.37
2022-10-13T22:43:34.843Z,56.70
2022-10-13T22:46:11.421Z,52.97
2022-10-13T22:48:40.934Z,50.70
2022-10-13T22:51:09.876Z,48.67
2022-10-13T22:53:36.120Z,51.27
2022-10-13T22:56:12.079Z,43.43
2022-10-13T22:58:38.252Z,41.93
2022-10-13T23:01:15.005Z,47.40
2022-10-13T23:03:42.198Z,47.60
2022-10-13T23:06:13.280Z,42.23
2022-10-13T23:08:40.034Z,44.73
2022-10-13T23:11:06.207Z,42.70
2022-10-13T23:13:33.227Z,44.07
2022-10-13T23:16:09.048Z,41.37
2022-10-13T23:18:38.993Z,44.10
2022-10-13T23:21:12.417Z,41.77
2022-10-13T23:23:39.022Z,44.83
2022-10-13T23:26:10.535Z,32.27
2022-10-13T23:28:37.986Z,34.50
2022-10-13T23:31:08.320Z,35.47
2022-10-13T23:33:34.799Z,32.53
2022-10-13T23:36:02.687Z,30.27
2022-10-13T23:38:30.413Z,27.27
2022-10-13T23:41:05.717Z,27.93
2022-10-13T23:43:34.472Z,32.97
2022-10-13T23:46:01.244Z,35.70
2022-10-13T23:48:28.356Z,33.80
2022-10-13T23:50:56.040Z,28.80
2022-10-13T23:53:24.494Z,34.87
2022-10-13T23:55:50.696Z,34.07
2022-10-13T23:58:17.119Z,35.27
